Time;durP1;ratioP1;P1;durP2;ratioP2;P2;SDS_P1;SDS_P2;PMS_P1;PMS_P2;Temp;Humidity;BMP_temperature;BMP_pressure;BME280_temperature;BME280_humidity;BME280_pressure;Samples;Min_cycle;Max_cycle;Signal;HPM_P1;HPM_P2
2024/03/24 00:04:36;;;;;;;2.13;0.20;;;3.40;98.00;;;;;;20414955;29;20035;-39
2024/03/24 00:14:37;;;;;;;1.98;0.25;;;3.20;98.00;;;;;;20323409;29;20032;-39
2024/03/24 00:24:39;;;;;;;0.50;0.10;;;3.00;98.00;;;;;;20359786;29;20035;-40
2024/03/24 00:34:41;;;;;;;0.52;0.10;;;2.90;97.40;;;;;;20388281;29;20867;-39
2024/03/24 00:44:43;;;;;;;0.75;0.20;;;2.80;97.60;;;;;;20334813;29;20040;-40
2024/03/24 00:54:44;;;;;;;0.35;0.20;;;2.80;96.60;;;;;;20338851;29;20122;-39
2024/03/24 01:04:46;;;;;;;0.60;0.10;;;2.80;96.60;;;;;;20334206;29;20036;-39
2024/03/24 01:14:48;;;;;;;0.03;0.00;;;2.70;96.20;;;;;;20391550;29;20032;-39
2024/03/24 01:24:52;;;;;;;0.47;0.13;;;2.50;96.50;;;;;;20380862;29;20036;-39
2024/03/24 01:34:54;;;;;;;1.05;0.20;;;2.40;96.50;;;;;;20366271;29;20032;-39
2024/03/24 01:44:56;;;;;;;0.22;0.10;;;2.20;96.40;;;;;;20331369;29;20044;-39
2024/03/24 01:54:59;;;;;;;0.40;0.08;;;2.20;96.20;;;;;;20385163;29;20051;-40
2024/03/24 02:05:01;;;;;;;0.20;0.00;;;2.10;96.10;;;;;;20419256;29;20043;-39
2024/03/24 02:15:03;;;;;;;0.82;0.10;;;2.10;95.80;;;;;;20429899;29;20038;-39
2024/03/24 02:25:05;;;;;;;0.20;0.10;;;1.90;96.30;;;;;;20433223;29;20506;-39
2024/03/24 02:35:07;;;;;;;0.20;0.00;;;1.80;96.10;;;;;;20392765;29;20036;-39
2024/03/24 02:45:12;;;;;;;0.22;0.10;;;1.80;96.40;;;;;;20340253;29;20036;-39
2024/03/24 02:55:14;;;;;;;1.65;0.00;;;1.70;95.90;;;;;;20382799;29;20053;-39
2024/03/24 03:05:15;;;;;;;1.02;0.08;;;1.50;95.60;;;;;;20407906;29;20066;-39
2024/03/24 03:15:17;;;;;;;0.70;0.00;;;1.30;96.70;;;;;;20428868;29;20035;-40
2024/03/24 03:25:19;;;;;;;0.40;0.10;;;1.00;97.20;;;;;;20408221;29;20361;-39
2024/03/24 03:35:23;;;;;;;0.20;0.03;;;0.60;97.20;;;;;;20371986;29;20047;-39
2024/03/24 03:45:25;;;;;;;0.30;0.10;;;0.60;97.70;;;;;;20332835;29;20353;-39
2024/03/24 03:55:27;;;;;;;0.00;0.00;;;0.50;97.10;;;;;;20385072;29;20521;-39
2024/03/24 04:05:29;;;;;;;0.38;0.10;;;0.30;96.50;;;;;;20424323;29;20114;-39
2024/03/24 04:15:31;;;;;;;1.13;0.25;;;0.80;94.50;;;;;;20413142;29;20036;-39
2024/03/24 04:25:33;;;;;;;0.20;0.00;;;0.90;94.60;;;;;;20372384;29;20092;-39
2024/03/24 04:35:35;;;;;;;0.82;0.10;;;0.90;93.70;;;;;;20373193;29;20044;-39
2024/03/24 04:45:37;;;;;;;0.10;0.00;;;0.90;94.90;;;;;;20336497;29;20426;-39
2024/03/24 04:55:38;;;;;;;0.10;0.00;;;0.20;95.70;;;;;;20391916;29;20051;-39
2024/03/24 05:05:45;;;;;;;0.10;0.00;;;0.80;94.30;;;;;;20420905;29;20048;-39
2024/03/24 05:15:51;;;;;;;0.25;0.00;;;0.80;93.00;;;;;;20420719;29;20031;-39
2024/03/24 05:25:53;;;;;;;0.22;0.00;;;0.30;96.70;;;;;;20396719;29;20388;-39
2024/03/24 05:36:01;;;;;;;0.38;0.10;;;-0.60;97.30;;;;;;20373395;29;20452;-38
2024/03/24 05:46:06;;;;;;;0.10;0.10;;;-0.50;98.70;;;;;;20336981;29;20061;-39
2024/03/24 05:56:08;;;;;;;0.10;0.00;;;-0.70;98.90;;;;;;20392656;29;20551;-38
2024/03/24 06:06:11;;;;;;;0.22;0.00;;;-0.90;99.00;;;;;;20367935;29;20133;-38
2024/03/24 06:16:13;;;;;;;0.20;0.00;;;-0.90;99.90;;;;;;20380309;29;20431;-38
2024/03/24 06:26:18;;;;;;;0.00;0.00;;;-0.80;99.80;;;;;;20380137;29;20550;-38
2024/03/24 06:36:20;;;;;;;0.10;0.00;;;-0.80;99.30;;;;;;20389277;29;20040;-38
2024/03/24 06:46:25;;;;;;;0.30;0.10;;;-0.50;99.40;;;;;;20366882;29;20088;-38
2024/03/24 06:56:27;;;;;;;0.55;0.05;;;-0.10;99.90;;;;;;20396320;29;20043;-39
2024/03/24 07:06:31;;;;;;;0.38;0.00;;;0.40;97.30;;;;;;20388224;29;20079;-40
2024/03/24 07:16:33;;;;;;;0.20;0.05;;;1.60;96.80;;;;;;20428905;29;20039;-39
2024/03/24 07:26:35;;;;;;;1.20;0.10;;;2.80;95.10;;;;;;20411342;29;20043;-40
2024/03/24 07:36:40;;;;;;;0.40;0.00;;;4.30;95.60;;;;;;20382507;29;20036;-40
2024/03/24 07:46:45;;;;;;;1.02;0.00;;;5.60;92.30;;;;;;20323933;29;20047;-40
2024/03/24 07:56:47;;;;;;;0.77;0.20;;;6.70;92.90;;;;;;20352693;29;20534;-40
2024/03/24 08:06:49;;;;;;;0.82;0.30;;;7.50;92.50;;;;;;20408630;29;20035;-41
2024/03/24 08:16:54;;;;;;;2.00;0.68;;;7.80;94.20;;;;;;20423990;29;20036;-41
2024/03/24 08:26:56;;;;;;;1.00;0.55;;;8.10;94.80;;;;;;20405037;29;20063;-44
2024/03/24 08:37:00;;;;;;;1.70;0.90;;;8.40;94.40;;;;;;20375285;29;20044;-43
2024/03/24 08:47:02;;;;;;;0.90;0.47;;;8.70;96.60;;;;;;20337339;29;20083;-42
2024/03/24 08:57:04;;;;;;;0.82;0.60;;;9.10;97.90;;;;;;20403584;29;20055;-42
2024/03/24 09:07:06;;;;;;;1.30;0.70;;;9.30;97.90;;;;;;20389059;29;20058;-43
2024/03/24 09:17:08;;;;;;;1.77;1.02;;;10.00;98.40;;;;;;20414531;29;20043;-45
2024/03/24 09:27:10;;;;;;;2.70;1.00;;;10.50;97.90;;;;;;20173957;29;20069;-43
2024/03/24 09:37:12;;;;;;;3.08;1.40;;;10.80;96.70;;;;;;20185524;29;20112;-44
2024/03/24 09:47:15;;;;;;;1.27;0.80;;;11.10;98.00;;;;;;20173875;29;20045;-43
2024/03/24 09:57:17;;;;;;;2.65;1.20;;;10.90;97.30;;;;;;20206167;29;20048;-44
2024/03/24 10:07:19;;;;;;;2.70;1.30;;;11.90;97.80;;;;;;20403674;29;20039;-42
2024/03/24 10:17:21;;;;;;;4.40;1.40;;;12.40;97.40;;;;;;20415574;29;20083;-42
2024/03/24 10:27:23;;;;;;;4.13;1.25;;;13.00;95.80;;;;;;20365825;29;20039;-41
2024/03/24 10:37:27;;;;;;;1.75;1.13;;;12.40;94.40;;;;;;20369967;29;20032;-42
2024/03/24 10:47:36;;;;;;;1.48;1.08;;;11.60;95.30;;;;;;20317121;29;20488;-42
2024/03/24 10:57:41;;;;;;;2.38;1.20;;;12.00;95.40;;;;;;20413664;29;20040;-43
2024/03/24 11:07:44;;;;;;;1.60;1.20;;;13.20;96.40;;;;;;20428872;29;20107;-42
2024/03/24 11:17:47;;;;;;;2.28;1.55;;;13.20;94.10;;;;;;20428820;29;20040;-41
2024/03/24 11:27:51;;;;;;;2.55;1.40;;;10.90;96.50;;;;;;20403013;29;20035;-42
2024/03/24 11:37:54;;;;;;;4.80;1.33;;;9.40;97.60;;;;;;20366270;29;20116;-42
2024/03/24 11:48:17;;;;;;;2.65;1.50;;;9.00;99.60;;;;;;20329922;29;20051;-40
2024/03/24 11:58:22;;;;;;;2.22;1.10;;;8.40;98.20;;;;;;20364029;29;20099;-41
2024/03/24 12:08:26;;;;;;;1.77;0.70;;;7.80;99.90;;;;;;20424983;29;20149;-41
2024/03/24 12:18:29;;;;;;;0.80;0.50;;;7.70;98.00;;;;;;20424386;29;20558;-42
2024/03/24 12:28:31;;;;;;;2.58;0.77;;;8.00;94.60;;;;;;20430311;23;20110;-41
2024/03/24 12:38:33;;;;;;;1.85;0.75;;;7.60;97.30;;;;;;20432344;29;20036;-40
2024/03/24 12:48:35;;;;;;;1.23;0.40;;;7.10;97.40;;;;;;20414737;29;20031;-41
2024/03/24 12:58:40;;;;;;;1.17;0.40;;;6.60;97.00;;;;;;20417451;29;20391;-40
2024/03/24 13:08:46;;;;;;;0.60;0.28;;;5.80;93.30;;;;;;20416116;29;20038;-40
2024/03/24 13:19:15;;;;;;;2.58;0.40;;;4.80;94.50;;;;;;20417974;29;20094;-40
2024/03/24 13:29:16;;;;;;;0.45;0.25;;;4.30;99.90;;;;;;20495556;29;20047;-40
2024/03/24 13:39:28;;;;;;;1.27;0.30;;;4.60;99.90;;;;;;20496370;29;20043;-41
2024/03/24 13:49:30;;;;;;;0.90;0.30;;;5.20;99.90;;;;;;20430286;29;20613;-40
2024/03/24 13:59:32;;;;;;;1.15;0.20;;;5.30;99.90;;;;;;20428352;29;20027;-39
2024/03/24 14:09:42;;;;;;;1.70;0.20;;;5.10;99.90;;;;;;20487156;28;20035;-40
2024/03/24 14:19:51;;;;;;;0.40;0.20;;;4.80;99.90;;;;;;20493574;29;20046;-41
2024/03/24 14:29:56;;;;;;;0.63;0.20;;;5.30;98.50;;;;;;20430694;29;20039;-41
2024/03/24 14:40:42;;;;;;;1.60;0.50;;;5.60;99.30;;;;;;20364793;29;20095;-40
2024/03/24 14:50:46;;;;;;;0.95;0.30;;;5.70;99.30;;;;;;20227388;29;20052;-40
2024/03/24 15:00:52;;;;;;;2.47;0.65;;;6.20;99.90;;;;;;20244915;29;20053;-43
2024/03/24 15:10:54;;;;;;;1.10;0.50;;;6.20;95.80;;;;;;20224897;29;20049;-41
2024/03/24 15:20:55;;;;;;;1.20;0.30;;;5.90;96.20;;;;;;20267112;29;20047;-41
2024/03/24 15:30:57;;;;;;;0.95;0.38;;;6.50;96.20;;;;;;20469747;29;20367;-41
2024/03/24 15:40:59;;;;;;;0.93;0.47;;;6.30;98.80;;;;;;20480107;29;20035;-41
2024/03/24 15:51:01;;;;;;;0.75;0.38;;;6.40;98.90;;;;;;20458892;29;20090;-41
2024/03/24 16:01:13;;;;;;;0.50;0.20;;;6.30;99.40;;;;;;20447450;29;20090;-41
2024/03/24 16:11:16;;;;;;;0.80;0.30;;;6.10;99.10;;;;;;20470431;29;20031;-40
2024/03/24 16:21:53;;;;;;;0.57;0.40;;;5.70;99.20;;;;;;20436113;29;20051;-41
2024/03/24 16:31:55;;;;;;;5.07;2.55;;;5.60;98.50;;;;;;20172516;29;20049;-40
2024/03/24 16:41:57;;;;;;;1.52;0.60;;;5.40;99.90;;;;;;20174225;29;20105;-40
2024/03/24 16:52:00;;;;;;;1.75;0.40;;;5.40;99.40;;;;;;20150158;29;20045;-40
2024/03/24 17:02:04;;;;;;;0.75;0.20;;;4.80;99.50;;;;;;20271124;29;20110;-39
2024/03/24 17:12:08;;;;;;;0.75;0.30;;;3.70;99.90;;;;;;20496763;29;20058;-39
2024/03/24 17:22:12;;;;;;;1.88;0.40;;;2.60;99.90;;;;;;20460644;29;20051;-39
2024/03/24 17:32:15;;;;;;;1.10;0.40;;;1.90;99.90;;;;;;20454795;29;20039;-39
2024/03/24 17:42:17;;;;;;;0.85;0.30;;;1.50;99.90;;;;;;20428389;29;20032;-39
2024/03/24 17:52:22;;;;;;;0.65;0.35;;;0.90;99.90;;;;;;20446460;29;20087;-39
2024/03/24 18:02:24;;;;;;;3.03;1.52;;;0.60;99.90;;;;;;20434764;29;20102;-40
2024/03/24 18:12:26;;;;;;;0.52;0.15;;;0.30;99.90;;;;;;20498218;29;20114;-40
2024/03/24 18:22:27;;;;;;;2.00;1.27;;;0.20;99.90;;;;;;20512491;29;20067;-39
2024/03/24 18:32:29;;;;;;;1.08;0.40;;;0.10;99.90;;;;;;20451410;29;20044;-39
2024/03/24 18:42:32;;;;;;;1.30;0.50;;;0.10;99.90;;;;;;20496295;29;20098;-40
2024/03/24 18:52:34;;;;;;;0.20;0.10;;;0.10;99.90;;;;;;20480262;28;20031;-39
2024/03/24 19:02:36;;;;;;;6.28;2.20;;;0.10;99.60;;;;;;20510125;29;20091;-40
2024/03/24 19:12:42;;;;;;;0.20;0.10;;;0.20;99.50;;;;;;20488483;29;20032;-41
2024/03/24 19:22:44;;;;;;;8.45;4.50;;;0.00;99.70;;;;;;20457032;29;20051;-39
2024/03/24 19:32:46;;;;;;;1.85;0.50;;;-0.10;99.60;;;;;;20508566;29;20031;-40
2024/03/24 19:42:47;;;;;;;3.55;1.35;;;-0.30;99.80;;;;;;20495830;29;20094;-40
2024/03/24 19:52:51;;;;;;;0.10;0.05;;;-0.30;99.90;;;;;;20454288;29;20035;-39
2024/03/24 20:02:53;;;;;;;0.45;0.10;;;-0.40;99.80;;;;;;20482256;29;20043;-39
2024/03/24 20:12:55;;;;;;;6.00;3.15;;;-0.40;99.40;;;;;;20493041;29;20059;-39
2024/03/24 20:22:57;;;;;;;1.20;0.50;;;-0.40;99.40;;;;;;20486388;29;20044;-40
2024/03/24 20:33:00;;;;;;;6.68;4.05;;;-0.50;99.40;;;;;;20457316;29;20032;-39
2024/03/24 20:43:02;;;;;;;1.55;0.60;;;-0.50;99.70;;;;;;20492459;29;20046;-40
2024/03/24 20:53:04;;;;;;;0.90;0.30;;;-0.50;99.10;;;;;;20471212;29;20035;-40
2024/03/24 21:03:11;;;;;;;0.17;0.00;;;-0.50;99.00;;;;;;20500979;29;20058;-40
2024/03/24 21:13:13;;;;;;;0.15;0.00;;;-0.50;98.50;;;;;;20474743;29;20040;-40
2024/03/24 21:23:15;;;;;;;1.42;0.10;;;-0.60;97.60;;;;;;20451598;29;20051;-40
2024/03/24 21:33:17;;;;;;;0.10;0.00;;;0.00;94.80;;;;;;20483489;29;20094;-40
2024/03/24 21:43:21;;;;;;;0.20;0.00;;;0.10;93.90;;;;;;20484148;29;20064;-40
2024/03/24 21:53:23;;;;;;;0.03;0.00;;;0.10;94.10;;;;;;20434958;29;20062;-40
2024/03/24 22:03:24;;;;;;;0.13;0.00;;;-0.10;94.10;;;;;;20499121;29;20047;-40
2024/03/24 22:13:26;;;;;;;0.90;0.10;;;-0.50;95.10;;;;;;20497110;29;20042;-40
2024/03/24 22:23:31;;;;;;;0.25;0.10;;;-0.90;96.40;;;;;;20497028;29;20503;-40
2024/03/24 22:33:34;;;;;;;0.55;0.00;;;-1.10;98.20;;;;;;20461383;28;20032;-40
2024/03/24 22:43:36;;;;;;;0.40;0.13;;;-1.20;98.00;;;;;;20505478;29;20388;-40
2024/03/24 22:53:44;;;;;;;0.35;0.10;;;-0.90;97.50;;;;;;20480097;29;20086;-43
2024/03/24 23:03:45;;;;;;;1.33;0.10;;;-0.40;97.60;;;;;;20508352;29;20071;-40
2024/03/24 23:13:49;;;;;;;0.20;0.10;;;0.00;96.90;;;;;;20479632;29;20051;-40
2024/03/24 23:23:51;;;;;;;0.70;0.10;;;-0.20;97.20;;;;;;20447568;29;20542;-39
2024/03/24 23:33:52;;;;;;;0.25;0.10;;;-0.50;97.10;;;;;;20506875;29;20031;-40
2024/03/24 23:43:54;;;;;;;0.00;0.00;;;-1.10;97.80;;;;;;20468937;28;20103;-39
2024/03/24 23:53:56;;;;;;;0.10;0.00;;;-1.30;96.50;;;;;;20463489;29;20035;-40
